Time;durP1;ratioP1;P1;durP2;ratioP2;P2;SDS_P1;SDS_P2;PMS_P1;PMS_P2;Temp;Humidity;BMP_temperature;BMP_pressure;BME280_temperature;BME280_humidity;BME280_pressure;Samples;Min_cycle;Max_cycle;Signal;HPM_P1;HPM_P2
2021/01/19 00:02:00;;;;;;;10.73;2.33;;;4.60;99.90;;;;;;4947327;28;20446;-83
2021/01/19 00:04:26;;;;;;;2.97;1.97;;;4.60;99.90;;;;;;4952563;28;20449;-84
2021/01/19 00:06:52;;;;;;;2.83;2.30;;;4.60;99.90;;;;;;4947899;28;20182;-83
2021/01/19 00:09:17;;;;;;;4.67;1.80;;;4.60;99.90;;;;;;4952867;28;20676;-87
2021/01/19 00:11:46;;;;;;;3.90;2.33;;;4.60;99.90;;;;;;4956035;28;20190;-86
2021/01/19 00:14:13;;;;;;;3.33;2.47;;;4.60;99.90;;;;;;4950516;28;20215;-86
2021/01/19 00:16:38;;;;;;;5.33;2.30;;;4.60;99.90;;;;;;4953220;28;20438;-86
2021/01/19 00:19:04;;;;;;;2.30;2.10;;;4.60;99.90;;;;;;4934262;28;20489;-85
2021/01/19 00:21:30;;;;;;;2.83;1.87;;;4.60;99.90;;;;;;4942829;28;20198;-82
2021/01/19 00:23:55;;;;;;;5.43;2.10;;;4.60;99.90;;;;;;4968823;28;20214;-85
2021/01/19 00:26:21;;;;;;;3.27;2.10;;;4.60;99.90;;;;;;4936869;28;20198;-84
2021/01/19 00:28:50;;;;;;;2.53;2.20;;;4.60;99.90;;;;;;4952026;28;20194;-85
2021/01/19 00:31:15;;;;;;;4.70;1.90;;;4.60;99.90;;;;;;4951273;28;20284;-84
2021/01/19 00:33:41;;;;;;;3.50;2.00;;;4.60;99.90;;;;;;4968742;28;20927;-84
2021/01/19 00:36:07;;;;;;;2.97;2.10;;;4.60;99.90;;;;;;4952557;28;20524;-84
2021/01/19 00:38:32;;;;;;;2.73;1.70;;;4.60;99.90;;;;;;4952178;28;20222;-85
2021/01/19 00:41:01;;;;;;;2.63;2.13;;;4.60;99.90;;;;;;4950373;28;20282;-85
2021/01/19 00:43:26;;;;;;;5.53;2.17;;;4.60;99.90;;;;;;4943333;28;20587;-83
2021/01/19 00:45:52;;;;;;;3.10;2.27;;;4.50;99.90;;;;;;4966853;28;20449;-85
2021/01/19 00:48:18;;;;;;;3.60;2.20;;;4.50;99.90;;;;;;4954876;28;20191;-84
2021/01/19 00:50:44;;;;;;;3.30;1.97;;;4.50;99.90;;;;;;4951498;28;20241;-85
2021/01/19 00:53:09;;;;;;;2.10;1.90;;;4.50;99.90;;;;;;4950412;28;20314;-85
2021/01/19 00:55:35;;;;;;;2.40;1.80;;;4.50;99.90;;;;;;4934669;28;20480;-84
2021/01/19 00:58:01;;;;;;;2.13;1.90;;;4.40;99.90;;;;;;4967576;28;20566;-84
2021/01/19 01:00:26;;;;;;;4.67;2.77;;;4.40;99.90;;;;;;4939627;28;20186;-85
2021/01/19 01:02:52;;;;;;;4.37;2.73;;;4.40;99.90;;;;;;4949717;28;20207;-82
2021/01/19 01:05:18;;;;;;;3.20;2.90;;;4.40;99.90;;;;;;4952278;28;20206;-86
2021/01/19 01:07:43;;;;;;;4.10;2.40;;;4.40;99.90;;;;;;4925365;28;20208;-83
2021/01/19 01:10:12;;;;;;;2.97;2.03;;;4.40;99.90;;;;;;4965748;28;20198;-84
2021/01/19 01:12:40;;;;;;;10.60;2.40;;;4.30;99.90;;;;;;4949088;28;20656;-86
2021/01/19 01:15:07;;;;;;;2.80;2.13;;;4.30;99.90;;;;;;4947559;28;20761;-85
2021/01/19 01:17:37;;;;;;;5.53;3.00;;;4.30;99.90;;;;;;4969911;28;20441;-86
2021/01/19 01:20:12;;;;;;;5.00;2.53;;;4.20;99.90;;;;;;4945181;28;20476;-83
2021/01/19 01:22:41;;;;;;;3.97;3.00;;;4.20;99.90;;;;;;4968931;28;20939;-86
2021/01/19 01:25:09;;;;;;;3.70;2.80;;;4.20;99.90;;;;;;4952761;28;20422;-85
2021/01/19 01:27:34;;;;;;;5.80;3.17;;;4.10;99.90;;;;;;4965122;28;20465;-83
2021/01/19 01:30:00;;;;;;;4.10;2.80;;;4.10;99.90;;;;;;4950422;28;20434;-83
2021/01/19 01:32:26;;;;;;;3.57;2.87;;;4.10;99.90;;;;;;4940130;28;20205;-87
2021/01/19 01:34:51;;;;;;;3.50;2.60;;;4.10;99.90;;;;;;4933121;28;20190;-83
2021/01/19 01:37:17;;;;;;;3.20;2.57;;;4.10;99.90;;;;;;4930954;28;20198;-84
2021/01/19 01:39:43;;;;;;;3.23;2.80;;;4.00;99.90;;;;;;4936760;28;20210;-85
2021/01/19 01:42:21;;;;;;;3.47;3.00;;;3.90;99.90;;;;;;4948602;28;20753;-84
2021/01/19 01:44:48;;;;;;;3.93;3.60;;;3.90;99.90;;;;;;4949189;28;20186;-86
2021/01/19 01:47:19;;;;;;;5.37;3.47;;;3.80;99.90;;;;;;4948179;28;20433;-84
2021/01/19 01:49:45;;;;;;;5.60;3.27;;;3.80;99.90;;;;;;4951542;28;20433;-85
2021/01/19 01:52:11;;;;;;;7.27;3.67;;;3.80;99.90;;;;;;4944895;28;20444;-85
2021/01/19 01:54:37;;;;;;;6.00;3.87;;;3.80;99.90;;;;;;4912481;28;20241;-84
2021/01/19 01:57:05;;;;;;;2.83;2.47;;;3.80;99.90;;;;;;4966739;28;20433;-84
2021/01/19 01:59:32;;;;;;;5.30;3.23;;;3.80;99.90;;;;;;4967261;28;20497;-84
2021/01/19 02:02:10;;;;;;;6.00;3.60;;;3.80;99.90;;;;;;4969305;28;20436;-85
2021/01/19 02:04:35;;;;;;;4.20;2.90;;;3.80;99.90;;;;;;4965854;28;20455;-84
2021/01/19 02:07:06;;;;;;;4.30;3.57;;;3.80;99.90;;;;;;4940728;28;20434;-85
2021/01/19 02:09:41;;;;;;;5.30;3.27;;;3.80;99.90;;;;;;4963654;28;20248;-83
2021/01/19 02:12:15;;;;;;;4.43;2.77;;;3.80;99.90;;;;;;4966441;28;20437;-84
2021/01/19 02:14:49;;;;;;;3.97;2.90;;;3.70;99.90;;;;;;4965962;28;20441;-84
2021/01/19 02:17:26;;;;;;;8.40;3.53;;;3.70;99.90;;;;;;4963718;28;20783;-82
2021/01/19 02:20:09;;;;;;;3.10;2.80;;;3.70;99.90;;;;;;4969284;28;20457;-81
2021/01/19 02:22:57;;;;;;;3.90;2.83;;;3.80;99.90;;;;;;4961539;28;20465;-86
2021/01/19 02:25:32;;;;;;;3.63;2.43;;;3.80;99.90;;;;;;4947430;28;21099;-85
2021/01/19 02:28:32;;;;;;;3.60;2.33;;;3.80;99.90;;;;;;4948761;28;21171;-83
2021/01/19 02:31:44;;;;;;;8.37;3.00;;;3.80;99.90;;;;;;4961540;28;20451;-82
2021/01/19 02:34:24;;;;;;;4.10;2.47;;;3.80;99.90;;;;;;4967099;28;20464;-84
2021/01/19 02:36:53;;;;;;;2.37;2.17;;;3.80;99.90;;;;;;4968228;28;20480;-85
2021/01/19 02:39:46;;;;;;;3.93;2.50;;;3.80;99.90;;;;;;4963457;28;20466;-82
2021/01/19 02:42:17;;;;;;;2.13;1.93;;;3.80;99.90;;;;;;4950580;28;20473;-83
2021/01/19 02:44:46;;;;;;;2.97;2.00;;;3.80;99.90;;;;;;4947646;28;20442;-83
2021/01/19 02:47:14;;;;;;;3.27;2.00;;;3.80;99.90;;;;;;4949851;28;20491;-86
2021/01/19 02:49:41;;;;;;;3.33;2.30;;;3.80;99.90;;;;;;4962144;28;20429;-84
2021/01/19 02:52:07;;;;;;;4.00;2.50;;;3.80;99.90;;;;;;4953857;28;20434;-83
2021/01/19 02:54:33;;;;;;;3.57;1.60;;;3.80;99.90;;;;;;4948835;28;20484;-83
2021/01/19 02:57:19;;;;;;;2.37;2.00;;;3.70;99.90;;;;;;4969159;28;20430;-84
2021/01/19 02:59:47;;;;;;;12.50;2.70;;;3.70;99.90;;;;;;4948953;28;20576;-83
2021/01/19 03:02:20;;;;;;;1.70;1.53;;;3.70;99.90;;;;;;4964380;28;20495;-82
2021/01/19 03:04:48;;;;;;;3.17;2.27;;;3.70;99.90;;;;;;4967565;28;20437;-84
2021/01/19 03:07:15;;;;;;;2.07;1.77;;;3.70;99.90;;;;;;4956186;28;20793;-81
2021/01/19 03:09:42;;;;;;;1.57;1.37;;;3.70;99.90;;;;;;4936894;28;20573;-81
2021/01/19 03:12:17;;;;;;;2.30;2.10;;;3.70;99.90;;;;;;4951901;28;20464;-84
2021/01/19 03:14:43;;;;;;;2.07;1.87;;;3.60;99.90;;;;;;4951549;28;20450;-83
2021/01/19 03:17:12;;;;;;;3.50;1.93;;;3.60;99.90;;;;;;4970403;28;20499;-83
2021/01/19 03:19:43;;;;;;;2.70;2.00;;;3.70;99.90;;;;;;4949530;28;20227;-82
2021/01/19 03:22:09;;;;;;;4.57;2.03;;;3.60;99.90;;;;;;4969504;28;20584;-83
2021/01/19 03:24:35;;;;;;;2.50;2.07;;;3.60;99.90;;;;;;4965063;28;20450;-83
2021/01/19 03:27:01;;;;;;;3.10;1.90;;;3.50;99.90;;;;;;4953346;28;20810;-82
2021/01/19 03:29:27;;;;;;;3.77;2.17;;;3.50;99.90;;;;;;4949510;28;20821;-85
2021/01/19 03:31:53;;;;;;;1.80;1.60;;;3.50;99.90;;;;;;4951750;28;20543;-83
2021/01/19 03:34:19;;;;;;;3.30;3.00;;;3.60;99.90;;;;;;4951713;28;20219;-82
2021/01/19 03:36:45;;;;;;;3.43;2.33;;;3.60;99.90;;;;;;4954385;28;20297;-84
2021/01/19 03:39:11;;;;;;;5.90;1.93;;;3.60;99.90;;;;;;4968179;28;20526;-83
2021/01/19 03:41:36;;;;;;;3.90;1.90;;;3.70;99.90;;;;;;4971549;28;20426;-85
2021/01/19 03:44:02;;;;;;;2.30;1.60;;;3.70;99.90;;;;;;4966882;28;20822;-85
2021/01/19 03:46:28;;;;;;;2.17;1.87;;;3.80;99.90;;;;;;4963360;28;20729;-83
2021/01/19 03:48:54;;;;;;;2.30;2.10;;;3.80;99.90;;;;;;4950414;28;20503;-84
2021/01/19 03:51:22;;;;;;;2.43;2.00;;;3.90;99.90;;;;;;4926281;28;20207;-81
2021/01/19 03:53:48;;;;;;;5.90;1.70;;;4.00;99.90;;;;;;4976121;28;20202;-82
2021/01/19 03:56:14;;;;;;;3.50;2.10;;;4.00;99.90;;;;;;4953281;28;20449;-83
2021/01/19 03:58:40;;;;;;;2.03;1.63;;;4.10;99.90;;;;;;4942318;28;20473;-84
2021/01/19 04:01:05;;;;;;;2.47;1.70;;;4.10;99.90;;;;;;4961309;28;20186;-83
2021/01/19 04:03:31;;;;;;;1.60;1.50;;;4.20;99.90;;;;;;4956785;28;20286;-83
2021/01/19 04:05:57;;;;;;;3.50;1.80;;;4.20;99.90;;;;;;4962186;28;20252;-83
2021/01/19 04:08:22;;;;;;;3.00;1.67;;;4.20;99.90;;;;;;4960667;28;20183;-83
2021/01/19 04:10:51;;;;;;;9.70;2.20;;;4.30;99.90;;;;;;4941758;28;20198;-83
2021/01/19 04:13:20;;;;;;;2.10;1.50;;;4.20;99.90;;;;;;4936500;28;20234;-81
2021/01/19 04:15:46;;;;;;;5.73;1.70;;;4.30;99.90;;;;;;4950386;28;20509;-82
2021/01/19 04:18:13;;;;;;;8.83;1.60;;;4.30;99.90;;;;;;4970413;28;20413;-82
2021/01/19 04:20:39;;;;;;;7.43;1.90;;;4.30;99.90;;;;;;4964546;28;20450;-83
2021/01/19 04:23:05;;;;;;;2.47;2.20;;;4.30;99.90;;;;;;4949608;28;21037;-84
2021/01/19 04:25:31;;;;;;;1.40;1.30;;;4.30;99.90;;;;;;4975263;28;20301;-84
2021/01/19 04:27:56;;;;;;;5.57;1.70;;;4.40;99.90;;;;;;4978482;28;20451;-83
2021/01/19 04:30:22;;;;;;;5.00;1.83;;;4.40;99.90;;;;;;4965886;28;20210;-85
2021/01/19 04:32:48;;;;;;;2.50;1.87;;;4.40;99.90;;;;;;4983994;28;20672;-84
2021/01/19 04:35:15;;;;;;;2.00;1.50;;;4.40;99.90;;;;;;4961903;28;20491;-82
2021/01/19 04:37:41;;;;;;;3.77;1.97;;;4.40;99.90;;;;;;4958803;28;20430;-85
2021/01/19 04:40:09;;;;;;;8.83;2.20;;;4.50;99.90;;;;;;4962062;28;20485;-85
2021/01/19 04:42:37;;;;;;;5.37;2.00;;;4.50;99.90;;;;;;4959882;28;20202;-85
2021/01/19 04:45:05;;;;;;;4.87;1.90;;;4.40;99.90;;;;;;4975912;28;20477;-82
2021/01/19 04:47:35;;;;;;;2.40;1.60;;;4.40;99.90;;;;;;4942876;28;20491;-83
2021/01/19 04:50:07;;;;;;;3.20;1.57;;;4.40;99.90;;;;;;4974806;28;20526;-86
2021/01/19 04:52:34;;;;;;;2.30;1.87;;;4.40;99.90;;;;;;4959371;28;20440;-87
2021/01/19 04:55:15;;;;;;;4.03;1.77;;;4.50;99.90;;;;;;4937126;28;20856;-86
2021/01/19 04:57:41;;;;;;;2.60;1.90;;;4.50;99.90;;;;;;4972305;28;20438;-85
2021/01/19 05:00:15;;;;;;;3.90;1.80;;;4.50;99.90;;;;;;4954039;28;20866;-83
2021/01/19 05:03:12;;;;;;;4.50;1.77;;;4.60;99.90;;;;;;4939946;28;20447;-86
2021/01/19 05:05:37;;;;;;;2.23;1.60;;;4.50;99.90;;;;;;4964744;28;20434;-85
2021/01/19 05:08:18;;;;;;;2.73;1.90;;;4.50;99.90;;;;;;4951607;28;21048;-84
2021/01/19 05:11:00;;;;;;;6.63;2.13;;;4.40;99.90;;;;;;4964950;28;20190;-85
2021/01/19 05:13:44;;;;;;;5.10;2.20;;;4.40;99.90;;;;;;4933289;28;20461;-82
2021/01/19 05:16:18;;;;;;;2.23;1.40;;;4.50;99.90;;;;;;4967143;28;20516;-84
2021/01/19 05:18:45;;;;;;;2.80;1.70;;;4.40;99.90;;;;;;4966656;28;20532;-83
2021/01/19 05:21:11;;;;;;;2.53;1.70;;;4.40;99.90;;;;;;4947845;28;20522;-84
2021/01/19 05:23:37;;;;;;;9.73;2.23;;;4.30;99.90;;;;;;4965215;28;20520;-85
2021/01/19 05:26:05;;;;;;;4.50;1.90;;;4.30;99.90;;;;;;4951998;28;20955;-84
2021/01/19 05:28:39;;;;;;;6.23;3.17;;;4.30;99.90;;;;;;4936488;28;20198;-86
2021/01/19 05:31:18;;;;;;;7.03;1.73;;;4.20;99.90;;;;;;4952896;28;20445;-85
2021/01/19 05:34:04;;;;;;;4.90;2.10;;;4.20;99.90;;;;;;4947569;28;20469;-84
2021/01/19 05:36:49;;;;;;;4.13;2.53;;;4.10;99.90;;;;;;4968604;28;20449;-85
2021/01/19 05:39:20;;;;;;;4.70;2.03;;;4.10;99.90;;;;;;4967422;28;20524;-86
2021/01/19 05:41:47;;;;;;;2.93;2.10;;;4.10;99.90;;;;;;4950170;28;20435;-85
2021/01/19 05:44:18;;;;;;;2.17;1.73;;;4.00;99.90;;;;;;4967763;28;20449;-84
2021/01/19 05:47:04;;;;;;;2.20;1.90;;;4.10;99.90;;;;;;4968956;28;20433;-84
2021/01/19 05:49:36;;;;;;;3.10;2.23;;;4.00;99.90;;;;;;4948259;28;20442;-84
2021/01/19 05:52:05;;;;;;;5.20;2.07;;;4.10;99.90;;;;;;4953803;28;20476;-84
2021/01/19 05:54:32;;;;;;;2.30;1.53;;;4.10;99.90;;;;;;4966719;28;20818;-83
2021/01/19 05:57:20;;;;;;;3.00;1.93;;;4.10;99.90;;;;;;4967469;28;20528;-85
2021/01/19 05:59:47;;;;;;;4.27;1.87;;;4.10;99.90;;;;;;4953002;28;20517;-84
2021/01/19 06:02:14;;;;;;;4.30;2.03;;;4.10;99.90;;;;;;4966860;28;21409;-86
2021/01/19 06:04:44;;;;;;;5.60;2.23;;;4.20;99.90;;;;;;4952418;28;21912;-86
2021/01/19 06:07:12;;;;;;;2.97;2.37;;;4.20;99.90;;;;;;4957027;28;20538;-86
2021/01/19 06:09:40;;;;;;;4.13;1.87;;;4.20;99.90;;;;;;4945462;28;20438;-85
2021/01/19 06:12:06;;;;;;;3.87;2.00;;;4.30;99.90;;;;;;4936923;28;20991;-85
2021/01/19 06:14:32;;;;;;;2.00;1.80;;;4.30;99.90;;;;;;4950787;28;20481;-85
2021/01/19 06:17:08;;;;;;;2.10;1.90;;;4.30;99.90;;;;;;4947267;28;20464;-85
2021/01/19 06:19:34;;;;;;;4.20;2.27;;;4.30;99.90;;;;;;4950429;28;20761;-85
2021/01/19 06:22:08;;;;;;;6.43;2.70;;;4.30;99.90;;;;;;4965745;28;20433;-86
2021/01/19 06:24:36;;;;;;;4.33;2.30;;;4.30;99.90;;;;;;4968697;28;20465;-85
2021/01/19 06:27:03;;;;;;;2.60;1.83;;;4.30;99.90;;;;;;4947998;28;21003;-86
2021/01/19 06:29:29;;;;;;;3.13;1.70;;;4.30;99.90;;;;;;4968845;28;20438;-85
2021/01/19 06:31:56;;;;;;;2.70;2.10;;;4.30;99.90;;;;;;4949203;28;21039;-85
2021/01/19 06:34:27;;;;;;;3.93;1.87;;;4.30;99.90;;;;;;4966455;28;20285;-82
2021/01/19 06:36:53;;;;;;;3.27;2.10;;;4.30;99.90;;;;;;4966632;28;20433;-84
2021/01/19 06:39:34;;;;;;;5.33;2.30;;;4.30;99.90;;;;;;4954959;28;20468;-84
2021/01/19 06:42:06;;;;;;;2.13;1.67;;;4.30;99.90;;;;;;4968146;28;20191;-85
2021/01/19 06:44:40;;;;;;;4.80;1.80;;;4.40;99.90;;;;;;4960111;28;20462;-86
2021/01/19 06:47:07;;;;;;;2.07;1.87;;;4.30;99.90;;;;;;4970433;28;20440;-86
2021/01/19 06:49:34;;;;;;;1.90;1.57;;;4.40;99.90;;;;;;4967000;28;20525;-87
2021/01/19 06:52:04;;;;;;;4.23;2.70;;;4.30;99.90;;;;;;4955176;28;20434;-85
2021/01/19 06:54:41;;;;;;;7.00;2.37;;;4.30;99.90;;;;;;4948838;28;20866;-85
2021/01/19 06:57:29;;;;;;;4.83;2.30;;;4.30;99.90;;;;;;4959838;28;20449;-84
2021/01/19 07:00:18;;;;;;;3.23;2.00;;;4.30;99.90;;;;;;4951882;28;20496;-86
2021/01/19 07:02:44;;;;;;;2.20;1.50;;;4.40;99.90;;;;;;4952610;28;20460;-85
2021/01/19 07:05:19;;;;;;;3.47;1.87;;;4.30;99.90;;;;;;4970591;28;20441;-85
2021/01/19 07:07:46;;;;;;;2.53;1.70;;;4.30;99.90;;;;;;4969425;28;20444;-84
2021/01/19 07:10:25;;;;;;;2.70;1.93;;;4.30;99.90;;;;;;4953049;28;20528;-85
2021/01/19 07:12:54;;;;;;;5.43;1.97;;;4.30;99.90;;;;;;4950554;28;21002;-85
2021/01/19 07:15:37;;;;;;;2.27;1.67;;;4.30;99.90;;;;;;4966984;28;20449;-86
2021/01/19 07:18:23;;;;;;;3.53;1.70;;;4.20;99.90;;;;;;4968376;28;20445;-83
2021/01/19 07:21:01;;;;;;;4.67;2.83;;;4.20;99.90;;;;;;4967022;28;20449;-85
2021/01/19 07:23:45;;;;;;;2.30;1.83;;;4.10;99.90;;;;;;4968241;28;21516;-84
2021/01/19 07:26:31;;;;;;;1.80;1.30;;;4.10;99.90;;;;;;4966826;28;20453;-85
2021/01/19 07:28:57;;;;;;;4.07;2.13;;;4.00;99.90;;;;;;4967666;28;20465;-86
2021/01/19 07:31:23;;;;;;;2.00;1.70;;;4.00;99.90;;;;;;4969062;28;20426;-85
2021/01/19 07:33:54;;;;;;;5.80;2.17;;;4.00;99.90;;;;;;4949159;28;21372;-84
2021/01/19 07:36:22;;;;;;;2.03;1.73;;;4.00;99.90;;;;;;4952442;28;20190;-85
2021/01/19 07:38:48;;;;;;;3.37;1.67;;;4.00;99.90;;;;;;4965169;28;21050;-85
2021/01/19 07:41:29;;;;;;;2.93;1.53;;;4.00;99.90;;;;;;4955094;28;21226;-84
2021/01/19 07:43:56;;;;;;;4.17;1.97;;;4.00;99.90;;;;;;4941844;28;20469;-84
2021/01/19 07:46:23;;;;;;;4.60;1.53;;;4.00;99.90;;;;;;4965485;28;20438;-86
2021/01/19 07:49:03;;;;;;;4.23;1.80;;;4.00;99.90;;;;;;4951563;28;22235;-85
2021/01/19 07:51:44;;;;;;;8.03;2.70;;;4.00;99.90;;;;;;4965676;28;20446;-86
2021/01/19 07:54:19;;;;;;;5.27;1.83;;;4.00;99.90;;;;;;4969862;28;20472;-83
2021/01/19 07:56:45;;;;;;;2.90;2.37;;;4.00;99.90;;;;;;4969980;28;20456;-84
2021/01/19 07:59:19;;;;;;;2.00;1.60;;;4.00;99.90;;;;;;4948798;28;20474;-85
2021/01/19 08:01:57;;;;;;;5.53;1.90;;;4.10;99.90;;;;;;4934550;28;20562;-84
2021/01/19 08:04:34;;;;;;;3.77;1.80;;;4.10;99.90;;;;;;4963845;28;20454;-82
2021/01/19 08:07:11;;;;;;;3.30;1.97;;;4.10;99.90;;;;;;4970156;28;20433;-84
2021/01/19 08:09:37;;;;;;;4.23;1.80;;;4.20;99.90;;;;;;4950808;28;20784;-85
2021/01/19 08:12:08;;;;;;;2.70;1.80;;;4.20;99.90;;;;;;4967301;28;20430;-84
2021/01/19 08:14:39;;;;;;;3.20;2.03;;;4.20;99.90;;;;;;4947719;28;21021;-84
2021/01/19 08:17:05;;;;;;;1.70;1.60;;;4.20;99.90;;;;;;4947507;28;20447;-84
2021/01/19 08:19:39;;;;;;;3.67;1.70;;;4.20;99.90;;;;;;4931323;28;20477;-84
2021/01/19 08:22:06;;;;;;;2.90;2.00;;;4.20;99.90;;;;;;4947634;28;20990;-82
2021/01/19 08:24:32;;;;;;;3.13;1.50;;;4.20;99.90;;;;;;4960069;28;20452;-84
2021/01/19 08:26:58;;;;;;;4.57;1.80;;;4.20;99.90;;;;;;4962499;28;20433;-83
2021/01/19 08:29:24;;;;;;;4.97;2.27;;;4.20;99.90;;;;;;4969085;28;20435;-84
2021/01/19 08:31:58;;;;;;;2.37;1.60;;;4.20;99.90;;;;;;4966102;28;20803;-85
2021/01/19 08:34:25;;;;;;;3.83;1.90;;;4.20;99.90;;;;;;4969098;28;20450;-84
2021/01/19 08:36:51;;;;;;;3.60;1.97;;;4.20;99.90;;;;;;4936916;28;20441;-83
2021/01/19 08:39:18;;;;;;;3.33;1.93;;;4.20;99.90;;;;;;4937136;28;20462;-83
2021/01/19 08:41:49;;;;;;;3.40;1.90;;;4.20;99.90;;;;;;4950889;28;20477;-86
2021/01/19 08:44:15;;;;;;;5.70;2.00;;;4.20;99.90;;;;;;4946194;28;20829;-84
2021/01/19 08:46:42;;;;;;;9.37;2.27;;;4.20;99.90;;;;;;4950914;28;20533;-85
2021/01/19 08:49:18;;;;;;;3.00;1.93;;;4.20;99.90;;;;;;4949658;28;20430;-85
2021/01/19 08:51:51;;;;;;;3.53;1.93;;;4.20;99.90;;;;;;4970858;28;20449;-84
2021/01/19 08:54:16;;;;;;;4.20;2.10;;;4.30;99.90;;;;;;4937795;28;20508;-85
2021/01/19 08:56:45;;;;;;;4.47;1.93;;;4.30;99.90;;;;;;4969918;28;20426;-85
2021/01/19 08:59:15;;;;;;;9.17;2.40;;;4.20;99.90;;;;;;4969188;28;20206;-84
2021/01/19 09:01:52;;;;;;;3.20;1.90;;;4.20;99.90;;;;;;4964581;28;20824;-84
2021/01/19 09:04:25;;;;;;;4.77;2.03;;;4.30;99.90;;;;;;4955086;28;20448;-84
2021/01/19 09:06:52;;;;;;;2.80;1.70;;;4.40;99.90;;;;;;4968414;28;20495;-86
2021/01/19 09:09:22;;;;;;;15.97;2.83;;;4.40;99.90;;;;;;4953316;28;20438;-88
2021/01/19 09:11:48;;;;;;;11.10;2.00;;;4.40;99.90;;;;;;4970176;28;20935;-85
2021/01/19 09:14:14;;;;;;;3.50;1.80;;;4.50;99.90;;;;;;4970668;28;20457;-85
2021/01/19 09:16:40;;;;;;;3.43;1.97;;;4.50;99.90;;;;;;4968642;28;20610;-82
2021/01/19 09:19:10;;;;;;;2.27;1.97;;;4.60;99.90;;;;;;4954670;28;20556;-83
2021/01/19 09:21:39;;;;;;;3.50;2.40;;;4.60;99.90;;;;;;4953797;28;20214;-84
2021/01/19 09:24:16;;;;;;;4.43;1.90;;;4.60;99.90;;;;;;4951558;28;20524;-84
2021/01/19 09:26:56;;;;;;;1.73;1.57;;;4.60;99.90;;;;;;4970664;28;20468;-86
2021/01/19 09:29:32;;;;;;;2.70;2.10;;;4.60;99.90;;;;;;4953480;28;20458;-83
2021/01/19 09:32:00;;;;;;;2.40;1.90;;;4.60;99.90;;;;;;4955243;28;20431;-84
2021/01/19 09:34:27;;;;;;;3.00;2.10;;;4.70;99.90;;;;;;4950066;28;20554;-84
2021/01/19 09:36:54;;;;;;;2.87;1.87;;;4.70;99.90;;;;;;4951626;28;20448;-84
2021/01/19 09:39:27;;;;;;;2.93;2.00;;;4.70;99.90;;;;;;4953603;28;20478;-85
2021/01/19 09:41:59;;;;;;;4.30;1.80;;;4.70;99.90;;;;;;4925191;28;20449;-86
2021/01/19 09:44:27;;;;;;;2.13;1.53;;;4.80;99.90;;;;;;4966204;28;20468;-85
2021/01/19 09:46:59;;;;;;;3.00;1.80;;;4.80;99.90;;;;;;4969195;28;20560;-84
2021/01/19 09:49:26;;;;;;;1.93;1.53;;;4.90;99.90;;;;;;4952605;28;20526;-87
2021/01/19 09:51:52;;;;;;;2.53;1.73;;;4.90;99.90;;;;;;4922834;28;20449;-87
2021/01/19 09:54:24;;;;;;;3.87;2.23;;;4.90;99.90;;;;;;4972987;28;20529;-83
2021/01/19 09:56:57;;;;;;;2.10;1.43;;;4.90;99.90;;;;;;4948367;28;20963;-83
2021/01/19 09:59:27;;;;;;;4.20;1.90;;;4.90;99.90;;;;;;4947351;28;20804;-86
2021/01/19 10:01:57;;;;;;;6.70;1.83;;;5.00;99.90;;;;;;4951775;28;20434;-85
2021/01/19 10:04:24;;;;;;;1.70;1.50;;;5.00;99.90;;;;;;4937127;28;21013;-84
2021/01/19 10:07:10;;;;;;;2.13;1.60;;;4.90;99.90;;;;;;4948713;28;20433;-85
2021/01/19 10:09:37;;;;;;;4.00;2.40;;;5.10;99.90;;;;;;4966349;28;20528;-85
2021/01/19 10:12:05;;;;;;;4.87;1.80;;;5.20;99.90;;;;;;4952138;28;20466;-85
2021/01/19 10:14:41;;;;;;;2.60;1.77;;;5.30;99.90;;;;;;4968768;28;20465;-86
2021/01/19 10:17:07;;;;;;;2.50;1.33;;;5.20;99.90;;;;;;4943208;28;20464;-86
2021/01/19 10:19:36;;;;;;;3.70;2.10;;;5.20;99.90;;;;;;4970135;28;20469;-86
2021/01/19 10:22:06;;;;;;;5.73;2.13;;;5.20;99.90;;;;;;4969468;28;20607;-84
2021/01/19 10:24:33;;;;;;;2.30;1.57;;;5.30;99.90;;;;;;4946045;28;20454;-85
2021/01/19 10:27:07;;;;;;;4.53;2.10;;;5.30;99.90;;;;;;4964180;28;20452;-85
2021/01/19 10:29:41;;;;;;;6.50;1.70;;;5.30;99.90;;;;;;4968527;28;20434;-85
2021/01/19 10:32:14;;;;;;;3.50;2.20;;;5.40;99.90;;;;;;4967543;28;20453;-84
2021/01/19 10:34:46;;;;;;;2.90;1.80;;;5.40;99.90;;;;;;4949724;28;21487;-82
2021/01/19 10:37:12;;;;;;;2.40;1.93;;;5.50;99.90;;;;;;4955934;28;20480;-84
2021/01/19 10:39:46;;;;;;;3.03;1.90;;;5.60;99.90;;;;;;4963509;28;21109;-86
2021/01/19 10:42:30;;;;;;;2.80;1.60;;;5.70;99.90;;;;;;4965263;28;20450;-86
2021/01/19 10:44:58;;;;;;;8.33;2.20;;;5.80;99.90;;;;;;4952306;28;20429;-86
2021/01/19 10:47:25;;;;;;;8.33;2.20;;;5.70;99.90;;;;;;4968341;28;20442;-83
2021/01/19 10:49:51;;;;;;;3.40;2.23;;;5.80;99.90;;;;;;4964930;28;20439;-85
2021/01/19 10:52:16;;;;;;;4.17;2.17;;;5.80;99.90;;;;;;4969645;28;20833;-85
2021/01/19 10:54:42;;;;;;;2.60;2.00;;;5.80;99.90;;;;;;4969488;28;20442;-84
2021/01/19 10:57:09;;;;;;;5.43;2.67;;;5.80;99.90;;;;;;4952066;28;20444;-86
2021/01/19 10:59:36;;;;;;;4.10;2.53;;;5.80;99.90;;;;;;4950848;28;20207;-84
2021/01/19 11:02:03;;;;;;;4.27;2.10;;;5.80;99.90;;;;;;4949313;28;20483;-85
2021/01/19 11:04:29;;;;;;;4.50;2.43;;;5.70;99.90;;;;;;4967898;28;20465;-85
2021/01/19 11:06:54;;;;;;;10.77;2.27;;;5.80;99.90;;;;;;4949591;28;20439;-83
2021/01/19 11:09:20;;;;;;;3.53;2.27;;;5.90;99.90;;;;;;4945710;28;20263;-85
2021/01/19 11:11:46;;;;;;;8.17;2.57;;;5.90;99.90;;;;;;4947125;28;20231;-87
2021/01/19 11:14:12;;;;;;;5.60;2.50;;;5.80;99.90;;;;;;4968907;28;20761;-83
2021/01/19 11:16:40;;;;;;;4.63;2.13;;;5.80;99.90;;;;;;4966524;28;20488;-84
2021/01/19 11:19:15;;;;;;;4.30;2.23;;;5.90;99.90;;;;;;4950803;28;20220;-86
2021/01/19 11:21:42;;;;;;;4.27;2.17;;;5.80;99.90;;;;;;4946581;28;20706;-84
2021/01/19 11:24:11;;;;;;;3.20;1.80;;;5.70;99.90;;;;;;4968344;28;20464;-86
2021/01/19 11:26:39;;;;;;;2.87;1.90;;;5.70;99.90;;;;;;4949325;28;20473;-85
2021/01/19 11:29:09;;;;;;;2.10;1.80;;;5.80;99.90;;;;;;4952903;28;21017;-84
2021/01/19 11:31:36;;;;;;;8.13;2.10;;;5.70;99.90;;;;;;4952088;28;20446;-82
2021/01/19 11:34:03;;;;;;;2.13;1.77;;;5.70;99.90;;;;;;4949926;28;20495;-85
2021/01/19 11:36:34;;;;;;;3.60;2.40;;;5.60;99.90;;;;;;4950227;28;20481;-86
2021/01/19 11:39:05;;;;;;;2.30;1.73;;;5.70;99.90;;;;;;4967005;28;20484;-86
2021/01/19 11:41:31;;;;;;;4.30;2.10;;;5.90;99.90;;;;;;4972251;28;20444;-86
2021/01/19 11:43:57;;;;;;;2.60;1.60;;;5.70;99.90;;;;;;4974397;28;20513;-86
2021/01/19 11:46:24;;;;;;;4.07;2.43;;;5.60;99.90;;;;;;4970748;28;20793;-85
2021/01/19 11:48:56;;;;;;;2.60;2.07;;;5.60;99.90;;;;;;4954856;28;20458;-85
2021/01/19 11:51:26;;;;;;;4.17;1.77;;;5.70;99.90;;;;;;4956806;28;20430;-87
2021/01/19 11:53:53;;;;;;;4.33;2.87;;;5.70;99.90;;;;;;4945127;28;20500;-85
2021/01/19 11:56:19;;;;;;;2.70;2.00;;;5.80;99.90;;;;;;4970019;28;20427;-87
2021/01/19 11:58:46;;;;;;;1.77;1.57;;;5.90;99.90;;;;;;4953093;28;20485;-86
2021/01/19 12:01:21;;;;;;;2.73;1.87;;;6.00;99.90;;;;;;4973693;28;20253;-88
2021/01/19 12:03:48;;;;;;;2.80;1.90;;;6.00;99.90;;;;;;4953740;28;20457;-89
2021/01/19 12:06:19;;;;;;;4.17;2.37;;;5.80;99.90;;;;;;4941948;28;20710;-87
2021/01/19 12:08:49;;;;;;;6.97;2.57;;;5.80;99.90;;;;;;4955253;28;20434;-89
2021/01/19 12:11:22;;;;;;;11.40;3.17;;;5.50;99.90;;;;;;4954919;28;20460;-90
2021/01/19 12:13:51;;;;;;;4.20;2.43;;;5.50;99.90;;;;;;4953570;28;20449;-88
2021/01/19 12:16:22;;;;;;;3.67;2.67;;;5.50;99.90;;;;;;4928970;28;20425;-86
2021/01/19 12:18:58;;;;;;;4.23;2.40;;;5.40;99.90;;;;;;4958676;28;20477;-88
2021/01/19 12:21:24;;;;;;;5.53;2.10;;;5.30;99.90;;;;;;4950956;28;20439;-89
2021/01/19 12:23:53;;;;;;;5.47;2.50;;;5.10;99.90;;;;;;4970265;28;20462;-89
2021/01/19 12:26:21;;;;;;;6.03;3.03;;;4.90;99.90;;;;;;4937024;28;20207;-89
2021/01/19 12:28:47;;;;;;;4.80;1.47;;;4.80;99.90;;;;;;4972937;28;20426;-87
2021/01/19 12:31:12;;;;;;;2.83;2.30;;;4.80;99.90;;;;;;4939592;28;20446;-87
2021/01/19 12:33:38;;;;;;;5.30;2.47;;;4.90;99.90;;;;;;4939251;28;20305;-83
2021/01/19 12:36:07;;;;;;;7.63;2.37;;;4.90;99.90;;;;;;4940298;28;20191;-89
2021/01/19 12:38:33;;;;;;;1.90;1.77;;;5.10;99.90;;;;;;4975612;28;20218;-86
2021/01/19 12:41:01;;;;;;;2.70;2.20;;;5.00;99.90;;;;;;4975953;28;20449;-90
2021/01/19 12:43:27;;;;;;;5.37;2.00;;;5.00;99.90;;;;;;4958711;28;20805;-89
2021/01/19 12:45:53;;;;;;;2.50;2.10;;;5.10;99.90;;;;;;4954793;28;20490;-88
2021/01/19 12:48:18;;;;;;;3.70;2.10;;;5.00;99.90;;;;;;4943223;28;20580;-87
2021/01/19 12:50:45;;;;;;;3.93;2.80;;;5.00;99.90;;;;;;4953843;28;20578;-86
2021/01/19 12:53:11;;;;;;;3.40;1.50;;;5.20;99.90;;;;;;4943837;28;20226;-87
2021/01/19 12:55:38;;;;;;;2.77;2.47;;;5.20;99.90;;;;;;4954040;28;20488;-87
2021/01/19 12:58:04;;;;;;;5.80;2.27;;;5.20;99.90;;;;;;4951260;28;20526;-88
2021/01/19 13:00:29;;;;;;;2.87;2.10;;;5.20;99.90;;;;;;4952646;28;20622;-88
2021/01/19 13:02:58;;;;;;;2.70;2.10;;;5.20;99.90;;;;;;4970876;28;20194;-86
2021/01/19 13:05:29;;;;;;;3.63;2.37;;;5.30;99.90;;;;;;4950720;28;20415;-85
2021/01/19 13:07:55;;;;;;;4.70;2.10;;;5.40;99.90;;;;;;4951872;28;20417;-85
2021/01/19 13:10:24;;;;;;;3.80;2.53;;;5.50;99.90;;;;;;4954332;28;20451;-87
2021/01/19 13:12:50;;;;;;;6.23;2.27;;;5.60;99.90;;;;;;4951690;28;20223;-86